createdAt,value
2023-07-19T00:00:41.300Z,10.00
2023-07-19T00:03:11.270Z,10.32
2023-07-19T00:05:42.124Z,7.05
2023-07-19T00:08:10.312Z,6.95
2023-07-19T00:10:38.460Z,9.63
2023-07-19T00:13:06.948Z,7.35
2023-07-19T00:15:35.179Z,6.78
2023-07-19T00:18:03.577Z,8.20
2023-07-19T00:20:33.101Z,8.18
2023-07-19T00:23:01.244Z,9.65
2023-07-19T00:25:29.892Z,7.60
2023-07-19T00:27:58.008Z,6.78
2023-07-19T00:30:26.404Z,9.25
2023-07-19T00:32:54.587Z,8.50
2023-07-19T00:35:24.081Z,7.55
2023-07-19T00:37:53.722Z,8.73
2023-07-19T00:40:22.592Z,6.90
2023-07-19T00:42:50.818Z,6.53
2023-07-19T00:45:19.267Z,5.78
2023-07-19T00:47:47.869Z,5.05
2023-07-19T00:50:17.232Z,6.03
2023-07-19T00:52:45.377Z,5.10
2023-07-19T00:55:15.070Z,6.20
2023-07-19T00:57:43.959Z,5.13
2023-07-19T01:00:14.392Z,5.65
2023-07-19T01:02:44.191Z,5.55
2023-07-19T01:05:12.521Z,5.93
2023-07-19T01:07:41.924Z,6.50
2023-07-19T01:10:11.566Z,5.65
2023-07-19T01:12:41.276Z,7.05
2023-07-19T01:15:10.929Z,6.60
2023-07-19T01:17:39.666Z,7.90
2023-07-19T01:20:09.811Z,5.65
2023-07-19T01:22:39.379Z,5.43
2023-07-19T01:25:08.363Z,5.45
2023-07-19T01:27:36.815Z,5.97
2023-07-19T01:30:05.666Z,6.17
2023-07-19T01:32:35.108Z,6.18
2023-07-19T01:35:03.333Z,8.27
2023-07-19T01:37:31.894Z,5.15
2023-07-19T01:40:03.316Z,5.30
2023-07-19T01:42:31.632Z,5.43
2023-07-19T01:45:00.629Z,5.47
2023-07-19T01:47:28.954Z,5.35
2023-07-19T01:49:59.687Z,5.03
2023-07-19T01:52:27.858Z,6.87
2023-07-19T01:54:56.099Z,8.13
2023-07-19T01:57:26.759Z,7.00
2023-07-19T01:59:55.172Z,8.80
2023-07-19T02:02:23.963Z,5.90
2023-07-19T02:04:52.580Z,5.83
2023-07-19T02:07:21.446Z,6.13
2023-07-19T02:09:49.436Z,5.97
2023-07-19T02:12:17.457Z,8.03
2023-07-19T02:14:47.036Z,5.47
2023-07-19T02:17:15.704Z,9.37
2023-07-19T02:19:43.838Z,6.23
2023-07-19T02:22:12.144Z,5.80
2023-07-19T02:24:40.557Z,6.83
2023-07-19T02:27:08.906Z,6.73
2023-07-19T02:29:39.226Z,6.40
2023-07-19T02:32:09.764Z,7.20
2023-07-19T02:34:38.194Z,6.20
2023-07-19T02:37:07.507Z,6.60
2023-07-19T02:39:35.757Z,7.30
2023-07-19T02:42:03.980Z,7.63
2023-07-19T02:44:32.272Z,8.37
2023-07-19T02:47:00.412Z,6.10
2023-07-19T02:49:30.377Z,6.37
2023-07-19T02:51:58.857Z,5.23
2023-07-19T02:54:27.095Z,6.07
2023-07-19T02:56:55.085Z,7.43
2023-07-19T02:59:23.138Z,7.63
2023-07-19T03:01:51.615Z,8.17
2023-07-19T03:04:19.681Z,6.67
2023-07-19T03:06:50.180Z,6.17
2023-07-19T03:09:18.217Z,8.20
2023-07-19T03:11:46.293Z,7.57
2023-07-19T03:14:14.317Z,6.77
2023-07-19T03:16:43.148Z,6.27
2023-07-19T03:19:14.032Z,7.23
2023-07-19T03:21:42.523Z,6.27
2023-07-19T03:24:13.484Z,7.27
2023-07-19T03:26:41.975Z,6.37
2023-07-19T03:29:10.016Z,6.33
2023-07-19T03:31:38.720Z,8.53
2023-07-19T03:34:07.632Z,9.73
2023-07-19T03:36:35.967Z,7.93
2023-07-19T03:39:04.780Z,9.57
2023-07-19T03:41:34.830Z,11.87
2023-07-19T03:44:03.589Z,9.73
2023-07-19T03:46:31.783Z,10.33
2023-07-19T03:49:00.956Z,10.40
2023-07-19T03:51:29.197Z,7.53
2023-07-19T03:53:57.277Z,10.30
2023-07-19T03:56:25.481Z,11.90
2023-07-19T03:58:55.137Z,11.33
2023-07-19T04:01:24.163Z,9.20
2023-07-19T04:03:52.392Z,7.13
2023-07-19T04:06:20.549Z,7.40
2023-07-19T04:08:48.708Z,8.27
2023-07-19T04:11:16.808Z,6.87
2023-07-19T04:13:44.875Z,6.73
2023-07-19T04:16:14.786Z,6.87
2023-07-19T04:18:42.953Z,9.47
2023-07-19T04:21:11.391Z,11.50
2023-07-19T04:23:39.568Z,8.63
2023-07-19T04:26:07.746Z,7.90
2023-07-19T04:28:36.123Z,9.63
2023-07-19T04:31:04.189Z,8.33
2023-07-19T04:33:34.025Z,8.57
2023-07-19T04:36:02.337Z,7.65
2023-07-19T04:38:30.318Z,8.00
2023-07-19T04:41:04.286Z,8.95
2023-07-19T04:43:32.797Z,8.23
2023-07-19T04:46:01.107Z,6.65
2023-07-19T04:48:31.407Z,7.68
2023-07-19T04:51:01.513Z,8.38
2023-07-19T04:53:29.545Z,17.25
2023-07-19T04:55:58.206Z,12.05
2023-07-19T04:58:28.238Z,11.88
2023-07-19T05:00:56.235Z,17.35
2023-07-19T05:03:24.280Z,12.40
2023-07-19T05:05:52.808Z,16.25
2023-07-19T05:08:22.597Z,11.52
2023-07-19T05:10:50.925Z,12.77
2023-07-19T05:13:20.061Z,16.02
2023-07-19T05:15:48.177Z,9.73
2023-07-19T05:18:16.285Z,8.63
2023-07-19T05:20:44.329Z,11.65
2023-07-19T05:23:13.490Z,11.63
2023-07-19T05:25:43.479Z,8.27
2023-07-19T05:28:11.973Z,12.18
2023-07-19T05:30:40.048Z,12.70
2023-07-19T05:33:08.258Z,11.55
2023-07-19T05:35:37.211Z,10.50
2023-07-19T05:38:06.446Z,8.98
2023-07-19T05:40:34.869Z,7.13
2023-07-19T05:43:04.664Z,12.90
2023-07-19T05:45:33.584Z,9.40
2023-07-19T05:48:02.071Z,10.02
2023-07-19T05:50:32.250Z,10.45
2023-07-19T05:53:00.510Z,8.43
2023-07-19T05:55:28.719Z,7.32
2023-07-19T05:57:57.931Z,12.30
2023-07-19T06:00:29.948Z,12.63
2023-07-19T06:02:58.747Z,11.07
2023-07-19T06:05:27.395Z,11.38
2023-07-19T06:07:57.833Z,8.27
2023-07-19T06:10:31.937Z,9.43
2023-07-19T06:13:00.146Z,7.60
2023-07-19T06:15:29.665Z,9.07
2023-07-19T06:17:57.978Z,7.88
2023-07-19T06:20:26.469Z,7.55
2023-07-19T06:22:57.118Z,11.48
2023-07-19T06:25:25.519Z,6.65
2023-07-19T06:27:53.765Z,7.13
2023-07-19T06:30:21.888Z,6.55
2023-07-19T06:32:52.007Z,10.13
2023-07-19T06:35:20.305Z,13.27
2023-07-19T06:37:48.526Z,8.50
2023-07-19T06:40:16.768Z,10.48
2023-07-19T06:42:45.219Z,9.55
2023-07-19T06:45:13.283Z,9.73
2023-07-19T06:47:41.495Z,14.43
2023-07-19T06:50:11.629Z,8.55
2023-07-19T06:52:41.344Z,11.20
2023-07-19T06:55:11.288Z,8.45
2023-07-19T06:57:39.474Z,11.23
2023-07-19T07:00:09.353Z,7.32
2023-07-19T07:02:38.567Z,8.50
2023-07-19T07:05:07.641Z,11.05
2023-07-19T07:07:38.221Z,10.95
2023-07-19T07:10:10.335Z,11.57
2023-07-19T07:12:38.708Z,13.32
2023-07-19T07:15:08.029Z,8.27
2023-07-19T07:17:36.211Z,11.25
2023-07-19T07:20:04.630Z,9.38
2023-07-19T07:22:33.529Z,8.75
2023-07-19T07:25:03.473Z,12.02
2023-07-19T07:27:31.959Z,11.73
2023-07-19T07:30:01.135Z,7.75
2023-07-19T07:32:29.517Z,13.80
2023-07-19T07:34:57.743Z,7.57
2023-07-19T07:37:26.082Z,10.20
2023-07-19T07:39:54.441Z,10.25
2023-07-19T07:42:25.677Z,8.88
2023-07-19T07:44:54.076Z,10.95
2023-07-19T07:47:22.466Z,7.65
2023-07-19T07:49:50.721Z,9.88
2023-07-19T07:52:19.163Z,9.55
2023-07-19T07:54:47.341Z,9.52
2023-07-19T07:57:15.628Z,9.68
2023-07-19T07:59:45.043Z,12.82
2023-07-19T08:02:13.189Z,8.00
2023-07-19T08:04:41.563Z,9.27
2023-07-19T08:07:09.658Z,11.38
2023-07-19T08:09:37.893Z,7.95
2023-07-19T08:12:07.230Z,10.50
2023-07-19T08:14:35.122Z,13.73
2023-07-19T08:17:05.207Z,9.68
2023-07-19T08:19:33.625Z,9.50
2023-07-19T08:22:05.663Z,8.77
2023-07-19T08:24:34.971Z,9.95
2023-07-19T08:27:03.303Z,8.27
2023-07-19T08:29:31.514Z,8.18
2023-07-19T08:31:59.553Z,10.27
2023-07-19T08:34:29.128Z,12.25
2023-07-19T08:36:57.718Z,7.10
2023-07-19T08:39:28.535Z,11.00
2023-07-19T08:41:56.842Z,8.85
2023-07-19T08:44:27.218Z,11.13
2023-07-19T08:46:56.047Z,14.13
2023-07-19T08:49:25.081Z,7.78
2023-07-19T08:51:55.537Z,12.35
2023-07-19T08:54:23.789Z,7.75
2023-07-19T08:56:52.187Z,9.10
2023-07-19T08:59:20.428Z,8.07
2023-07-19T09:01:48.427Z,7.72
2023-07-19T09:04:17.006Z,15.88
2023-07-19T09:06:49.080Z,8.05
2023-07-19T09:09:19.306Z,8.15
2023-07-19T09:11:51.560Z,10.60
2023-07-19T09:14:19.963Z,9.55
2023-07-19T09:16:53.341Z,10.93
2023-07-19T09:19:22.846Z,9.82
2023-07-19T09:21:52.758Z,16.08
2023-07-19T09:24:22.565Z,15.63
2023-07-19T09:26:52.171Z,11.25
2023-07-19T09:29:20.660Z,7.07
2023-07-19T09:31:55.054Z,10.20
2023-07-19T09:34:25.228Z,7.38
2023-07-19T09:36:54.995Z,8.95
2023-07-19T09:39:24.841Z,9.05
2023-07-19T09:42:02.759Z,7.40
2023-07-19T09:44:31.420Z,8.50
2023-07-19T09:47:01.264Z,8.57
2023-07-19T09:49:29.568Z,11.05
2023-07-19T09:51:58.386Z,10.50
2023-07-19T09:54:33.648Z,10.18
2023-07-19T09:57:03.542Z,8.52
2023-07-19T09:59:36.833Z,8.43
2023-07-19T10:02:06.901Z,13.13
2023-07-19T10:04:39.185Z,8.02
2023-07-19T10:07:11.530Z,8.45
2023-07-19T10:09:44.282Z,7.60
2023-07-19T10:12:29.599Z,9.23
2023-07-19T10:15:01.460Z,8.18
2023-07-19T10:17:32.086Z,7.15
2023-07-19T10:20:08.497Z,8.98
2023-07-19T10:22:57.188Z,7.97
2023-07-19T10:25:29.353Z,7.00
2023-07-19T10:27:59.236Z,8.65
2023-07-19T10:30:53.095Z,10.57
2023-07-19T10:33:26.463Z,8.35
2023-07-19T10:35:56.534Z,8.25
2023-07-19T10:38:25.959Z,8.52
2023-07-19T10:41:00.041Z,8.10
2023-07-19T10:43:44.926Z,9.10
2023-07-19T10:46:15.315Z,7.93
2023-07-19T10:48:44.656Z,7.68
2023-07-19T10:51:12.745Z,8.10
2023-07-19T10:53:45.552Z,8.25
2023-07-19T10:56:15.887Z,6.80
2023-07-19T10:58:44.073Z,6.40
2023-07-19T11:01:14.779Z,11.98
2023-07-19T11:03:47.705Z,6.82
2023-07-19T11:06:16.618Z,8.45
2023-07-19T11:08:45.701Z,9.40
2023-07-19T11:11:17.211Z,8.32
2023-07-19T11:13:47.269Z,9.00
2023-07-19T11:16:16.194Z,9.95
2023-07-19T11:18:44.378Z,7.65
2023-07-19T11:21:12.899Z,9.13
2023-07-19T11:23:43.553Z,6.80
2023-07-19T11:26:13.262Z,6.93
2023-07-19T11:28:48.262Z,8.55
2023-07-19T11:31:34.005Z,7.43
2023-07-19T11:34:03.604Z,6.88
2023-07-19T11:36:33.294Z,6.32
2023-07-19T11:39:01.915Z,5.88
2023-07-19T11:41:32.875Z,8.73
2023-07-19T11:44:02.729Z,6.65
2023-07-19T11:46:31.020Z,6.68
2023-07-19T11:48:59.463Z,7.72
2023-07-19T11:51:29.586Z,8.77
2023-07-19T11:53:57.898Z,7.18
2023-07-19T11:56:29.163Z,5.10
2023-07-19T11:58:58.028Z,6.22
2023-07-19T12:01:28.273Z,9.07
2023-07-19T12:04:01.556Z,6.15
2023-07-19T12:06:30.683Z,7.97
2023-07-19T12:09:00.407Z,6.10
2023-07-19T12:11:28.631Z,4.95
2023-07-19T12:13:58.713Z,5.50
2023-07-19T12:16:28.733Z,5.72
2023-07-19T12:18:56.887Z,5.25
2023-07-19T12:21:25.627Z,5.60
2023-07-19T12:28:56.677Z,5.03
2023-07-19T12:31:25.217Z,6.13
2023-07-19T12:33:54.832Z,6.03
2023-07-19T12:36:23.550Z,6.65
2023-07-19T12:38:51.861Z,5.05
2023-07-19T12:41:25.343Z,5.20
2023-07-19T12:43:53.558Z,4.80
2023-07-19T12:46:23.381Z,6.22
2023-07-19T12:48:52.369Z,6.05
2023-07-19T12:51:24.014Z,4.97
2023-07-19T12:53:52.187Z,5.75
2023-07-19T12:56:21.370Z,6.10
2023-07-19T12:58:50.282Z,5.38
2023-07-19T13:01:18.852Z,5.72
2023-07-19T13:03:47.104Z,5.82
2023-07-19T13:06:15.756Z,5.50
2023-07-19T13:08:46.020Z,5.35
2023-07-19T13:11:14.573Z,6.32
2023-07-19T13:13:42.839Z,6.15
2023-07-19T13:16:11.294Z,5.28
2023-07-19T13:18:40.227Z,4.78
2023-07-19T13:21:08.722Z,5.28
2023-07-19T13:23:36.838Z,5.28
2023-07-19T13:26:06.404Z,6.57
2023-07-19T13:28:34.812Z,4.32
2023-07-19T13:31:03.113Z,5.28
2023-07-19T13:33:31.397Z,6.03
2023-07-19T13:36:00.140Z,4.78
2023-07-19T13:38:28.995Z,5.00
2023-07-19T13:40:57.430Z,5.43
2023-07-19T13:43:27.749Z,5.65
2023-07-19T13:45:56.035Z,6.13
2023-07-19T13:48:24.231Z,5.07
2023-07-19T13:50:53.004Z,5.28
2023-07-19T13:53:22.434Z,6.25
2023-07-19T13:55:50.571Z,7.95
2023-07-19T13:58:18.827Z,9.13
2023-07-19T14:00:48.325Z,7.07
2023-07-19T14:03:17.703Z,6.25
2023-07-19T14:05:46.112Z,6.88
2023-07-19T14:08:15.541Z,7.13
2023-07-19T14:10:43.652Z,5.32
2023-07-19T14:16:04.780Z,6.93
2023-07-19T14:18:34.954Z,6.00
2023-07-19T14:21:10.217Z,8.85
2023-07-19T14:23:38.910Z,6.85
2023-07-19T14:26:07.541Z,7.78
2023-07-19T14:28:35.760Z,7.82
2023-07-19T14:31:05.802Z,6.18
2023-07-19T14:33:34.027Z,5.60
2023-07-19T14:36:04.550Z,8.02
2023-07-19T14:38:33.562Z,7.28
2023-07-19T14:41:02.862Z,5.82
2023-07-19T14:43:31.089Z,5.47
2023-07-19T14:45:59.704Z,6.20
2023-07-19T14:48:29.701Z,5.90
2023-07-19T14:50:58.662Z,5.40
2023-07-19T14:53:26.766Z,6.10
2023-07-19T14:55:56.514Z,6.10
2023-07-19T14:58:24.738Z,5.28
2023-07-19T15:00:53.499Z,6.45
2023-07-19T15:05:54.126Z,6.30
2023-07-19T15:08:22.881Z,7.25
2023-07-19T15:10:51.120Z,7.40
2023-07-19T15:13:21.204Z,6.03
2023-07-19T15:15:55.576Z,5.88
2023-07-19T15:18:24.137Z,6.65
2023-07-19T15:20:53.702Z,7.88
2023-07-19T15:23:23.290Z,5.93
2023-07-19T15:25:52.339Z,6.40
2023-07-19T15:28:29.497Z,7.13
2023-07-19T15:30:59.727Z,5.43
2023-07-19T15:33:28.610Z,6.53
2023-07-19T15:36:00.500Z,5.88
2023-07-19T15:38:39.918Z,6.03
2023-07-19T15:41:08.796Z,5.65
2023-07-19T15:43:38.105Z,6.82
2023-07-19T15:46:09.367Z,6.05
2023-07-19T15:48:38.295Z,6.60
2023-07-19T15:51:12.042Z,7.28
2023-07-19T15:53:40.665Z,6.15
2023-07-19T15:56:10.050Z,6.30
2023-07-19T15:58:38.898Z,7.05
2023-07-19T16:01:08.077Z,6.78
2023-07-19T16:03:37.239Z,6.55
2023-07-19T16:06:08.035Z,6.78
2023-07-19T16:08:39.368Z,6.03
2023-07-19T16:11:07.862Z,6.32
2023-07-19T16:13:36.624Z,8.00
2023-07-19T16:16:05.795Z,7.35
2023-07-19T16:18:35.146Z,6.70
2023-07-19T16:21:03.866Z,7.60
2023-07-19T16:23:32.306Z,6.68
2023-07-19T16:26:01.869Z,6.85
2023-07-19T16:28:30.195Z,6.57
2023-07-19T16:31:00.112Z,5.97
2023-07-19T16:33:28.210Z,7.70
2023-07-19T16:35:56.763Z,6.10
2023-07-19T16:38:25.481Z,6.32
2023-07-19T16:40:53.573Z,8.20
2023-07-19T16:43:25.837Z,6.10
2023-07-19T16:45:54.687Z,6.43
2023-07-19T16:48:23.744Z,6.55
2023-07-19T16:50:52.367Z,6.55
2023-07-19T16:53:21.737Z,6.22
2023-07-19T16:55:50.371Z,6.47
2023-07-19T16:58:18.464Z,6.35
2023-07-19T17:00:48.558Z,6.00
2023-07-19T17:03:18.883Z,9.52
2023-07-19T17:05:46.940Z,6.15
2023-07-19T17:08:15.593Z,6.25
2023-07-19T17:10:43.722Z,7.25
2023-07-19T17:13:11.945Z,6.75
2023-07-19T17:15:40.072Z,6.32
2023-07-19T17:18:10.374Z,6.93
2023-07-19T17:20:39.045Z,6.85
2023-07-19T17:23:08.215Z,6.32
2023-07-19T17:25:37.050Z,6.50
2023-07-19T17:28:05.370Z,7.80
2023-07-19T17:30:34.694Z,8.35
2023-07-19T17:33:03.136Z,8.45
2023-07-19T17:35:32.853Z,8.27
2023-07-19T17:38:01.333Z,6.00
2023-07-19T17:40:29.813Z,7.15
2023-07-19T17:42:58.241Z,10.43
2023-07-19T17:45:26.461Z,5.80
2023-07-19T17:47:54.589Z,5.85
2023-07-19T17:50:23.047Z,7.22
2023-07-19T17:52:53.003Z,6.30
2023-07-19T17:55:21.408Z,7.18
2023-07-19T17:57:51.428Z,7.43
2023-07-19T18:00:20.344Z,11.10
2023-07-19T18:02:48.430Z,8.60
2023-07-19T18:05:16.803Z,10.05
2023-07-19T18:07:46.311Z,8.40
2023-07-19T18:10:15.805Z,14.60
2023-07-19T18:12:44.202Z,12.68
2023-07-19T18:15:12.529Z,12.00
2023-07-19T18:17:40.684Z,10.25
2023-07-19T18:20:10.155Z,12.25
2023-07-19T18:22:40.528Z,7.65
2023-07-19T18:25:09.618Z,13.48
2023-07-19T18:27:39.197Z,9.45
2023-07-19T18:30:08.875Z,12.13
2023-07-19T18:32:37.434Z,8.70
2023-07-19T18:35:06.481Z,8.82
2023-07-19T18:37:34.516Z,9.13
2023-07-19T18:40:03.281Z,10.15
2023-07-19T18:42:31.309Z,8.05
2023-07-19T18:45:01.347Z,7.18
2023-07-19T18:47:29.313Z,8.65
2023-07-19T18:49:58.476Z,10.18
2023-07-19T18:52:26.633Z,7.72
2023-07-19T18:54:54.982Z,8.05
2023-07-19T18:57:23.588Z,7.30
2023-07-19T18:59:51.617Z,12.48
2023-07-19T19:02:21.449Z,7.57
2023-07-19T19:04:50.066Z,7.93
2023-07-19T19:07:17.976Z,11.40
2023-07-19T19:09:46.603Z,7.47
2023-07-19T19:12:15.545Z,7.75
2023-07-19T19:14:47.121Z,7.50
2023-07-19T19:17:17.271Z,7.97
2023-07-19T19:19:46.772Z,7.38
2023-07-19T19:22:16.239Z,9.05
2023-07-19T19:24:46.367Z,7.82
2023-07-19T19:27:14.503Z,9.48
2023-07-19T19:29:44.415Z,7.80
2023-07-19T19:32:14.018Z,10.43
2023-07-19T19:34:42.125Z,8.35
2023-07-19T19:37:13.551Z,9.43
2023-07-19T19:39:41.628Z,8.30
2023-07-19T19:42:10.544Z,9.07
2023-07-19T19:44:39.029Z,8.23
2023-07-19T19:47:08.469Z,7.88
2023-07-19T19:49:38.128Z,9.15
2023-07-19T19:52:07.253Z,8.15
2023-07-19T19:54:37.394Z,9.52
2023-07-19T19:57:08.516Z,7.82
2023-07-19T19:59:37.062Z,7.38
2023-07-19T20:04:37.300Z,7.55
2023-07-19T20:07:06.583Z,9.63
2023-07-19T20:09:41.053Z,8.38
2023-07-19T20:12:17.132Z,8.45
2023-07-19T20:14:45.036Z,10.93
2023-07-19T20:17:13.093Z,9.05
2023-07-19T20:19:41.249Z,7.63
2023-07-19T20:22:11.883Z,9.57
2023-07-19T20:24:48.002Z,7.85
2023-07-19T20:27:23.887Z,8.95
2023-07-19T20:35:01.291Z,10.32
2023-07-19T20:37:32.745Z,7.10
2023-07-19T20:40:05.022Z,7.15
2023-07-19T20:45:13.485Z,9.52
2023-07-19T20:50:11.109Z,7.70
2023-07-19T20:52:39.477Z,7.55
2023-07-19T20:55:09.220Z,7.20
2023-07-19T20:57:38.800Z,7.72
2023-07-19T21:00:08.232Z,7.55
2023-07-19T21:02:36.367Z,7.13
2023-07-19T21:05:05.229Z,7.03
2023-07-19T21:07:33.333Z,8.00
2023-07-19T21:10:03.785Z,7.90
2023-07-19T21:12:32.244Z,7.80
2023-07-19T21:15:01.766Z,7.00
2023-07-19T21:17:30.238Z,7.43
2023-07-19T21:19:58.660Z,8.05
2023-07-19T21:22:26.782Z,7.18
2023-07-19T21:27:26.779Z,6.88
2023-07-19T21:29:55.181Z,7.07
2023-07-19T21:32:27.272Z,7.63
2023-07-19T21:34:55.711Z,7.90
2023-07-19T21:37:23.848Z,7.32
2023-07-19T21:39:53.507Z,7.07
2023-07-19T21:42:22.140Z,8.70
2023-07-19T21:44:50.871Z,7.80
2023-07-19T21:47:19.565Z,7.53
2023-07-19T21:49:49.360Z,7.43
2023-07-19T21:52:17.345Z,27.83
2023-07-19T21:54:46.679Z,41.70
2023-07-19T21:57:14.917Z,43.70
2023-07-19T21:59:43.040Z,31.52
2023-07-19T22:02:11.041Z,40.03
2023-07-19T22:04:39.670Z,28.08
2023-07-19T22:07:10.381Z,17.23
2023-07-19T22:09:42.145Z,23.55
2023-07-19T22:12:11.344Z,19.42
2023-07-19T22:14:43.524Z,12.60
2023-07-19T22:17:14.187Z,10.82
2023-07-19T22:19:42.374Z,10.77
2023-07-19T22:22:11.684Z,5.43
2023-07-19T22:24:39.815Z,5.93
2023-07-19T22:27:08.481Z,5.38
2023-07-19T22:29:36.711Z,5.30
2023-07-19T22:32:05.190Z,9.45
2023-07-19T22:34:34.700Z,8.25
2023-07-19T22:37:03.891Z,5.32
2023-07-19T22:39:33.374Z,4.25
2023-07-19T22:42:01.580Z,2.58
2023-07-19T22:44:29.692Z,5.80
2023-07-19T22:46:58.221Z,4.70
2023-07-19T22:49:26.641Z,6.88
2023-07-19T22:51:55.156Z,7.60
2023-07-19T22:54:27.172Z,4.30
2023-07-19T22:56:56.666Z,3.90
2023-07-19T22:59:25.203Z,7.28
2023-07-19T23:01:55.380Z,8.65
2023-07-19T23:04:24.070Z,6.43
2023-07-19T23:06:53.205Z,4.60
2023-07-19T23:09:21.666Z,5.32
2023-07-19T23:11:49.799Z,8.15
2023-07-19T23:14:19.439Z,9.82
2023-07-19T23:16:47.976Z,4.40
2023-07-19T23:19:15.943Z,8.35
2023-07-19T23:21:44.021Z,3.53
2023-07-19T23:24:12.670Z,6.32
2023-07-19T23:26:40.772Z,7.00
2023-07-19T23:29:09.519Z,6.60
2023-07-19T23:31:42.446Z,6.55
2023-07-19T23:34:11.912Z,9.68
2023-07-19T23:36:40.257Z,9.43
2023-07-19T23:39:08.285Z,6.10
2023-07-19T23:41:36.291Z,5.75
2023-07-19T23:44:05.047Z,4.47
2023-07-19T23:46:33.706Z,5.80
2023-07-19T23:49:03.361Z,5.32
2023-07-19T23:51:33.075Z,5.22
2023-07-19T23:54:02.224Z,5.80
2023-07-19T23:56:30.311Z,5.18
2023-07-19T23:58:58.534Z,7.63
